createdAt,value
2023-04-04T00:00:21.886Z,52.26
2023-04-04T00:02:49.553Z,52.46
2023-04-04T00:05:17.215Z,52.01
2023-04-04T00:07:47.496Z,52.37
2023-04-04T00:10:15.055Z,52.04
2023-04-04T00:12:42.672Z,52.05
2023-04-04T00:15:10.313Z,51.85
2023-04-04T00:17:37.278Z,52.05
2023-04-04T00:20:04.653Z,52.01
2023-04-04T00:22:31.725Z,51.59
2023-04-04T00:24:59.235Z,51.84
2023-04-04T00:27:26.400Z,52.23
2023-04-04T00:29:53.584Z,51.87
2023-04-04T00:32:21.225Z,52.22
2023-04-04T00:34:53.735Z,52.30
2023-04-04T00:37:22.991Z,52.26
2023-04-04T00:39:50.486Z,52.41
2023-04-04T00:42:18.211Z,52.29
2023-04-04T00:44:45.448Z,52.26
2023-04-04T00:47:13.142Z,52.38
2023-04-04T00:49:40.597Z,52.57
2023-04-04T00:52:08.251Z,52.55
2023-04-04T00:54:35.983Z,52.75
2023-04-04T00:57:07.195Z,52.35
2023-04-04T00:59:34.369Z,52.57
2023-04-04T01:02:01.372Z,52.68
2023-04-04T01:04:29.630Z,52.54
2023-04-04T01:06:57.064Z,52.32
2023-04-04T01:09:24.467Z,53.20
2023-04-04T01:11:52.495Z,52.78
2023-04-04T01:14:19.820Z,52.69
2023-04-04T01:16:49.750Z,53.08
2023-04-04T01:19:30.688Z,53.19
2023-04-04T01:22:01.328Z,52.88
2023-04-04T01:24:33.888Z,53.27
2023-04-04T01:27:03.445Z,53.39
2023-04-04T01:29:32.367Z,53.16
2023-04-04T01:32:12.725Z,53.44
2023-04-04T01:34:50.181Z,53.75
2023-04-04T01:37:36.984Z,53.32
2023-04-04T01:40:12.511Z,53.01
2023-04-04T01:42:42.436Z,53.27
2023-04-04T01:45:09.617Z,53.32
2023-04-04T01:47:43.490Z,54.00
2023-04-04T01:50:16.747Z,53.35
2023-04-04T01:52:44.593Z,53.27
2023-04-04T01:55:11.662Z,53.21
2023-04-04T01:57:39.050Z,53.17
2023-04-04T02:00:07.461Z,53.24
2023-04-04T02:02:42.588Z,53.39
2023-04-04T02:05:11.109Z,53.07
2023-04-04T02:07:38.429Z,53.15
2023-04-04T02:10:12.487Z,53.37
2023-04-04T02:12:40.990Z,53.25
2023-04-04T02:15:08.310Z,53.33
2023-04-04T02:17:35.847Z,53.58
2023-04-04T02:20:04.115Z,53.63
2023-04-04T02:22:31.008Z,53.83
2023-04-04T02:24:58.011Z,53.67
2023-04-04T02:27:25.033Z,54.04
2023-04-04T02:29:51.992Z,54.30
2023-04-04T02:32:19.144Z,54.25
2023-04-04T02:34:46.980Z,54.71
2023-04-04T02:37:14.594Z,55.37
2023-04-04T02:39:42.725Z,54.54
2023-04-04T02:42:09.825Z,54.28
2023-04-04T02:44:37.199Z,54.15
2023-04-04T02:47:06.444Z,54.08
2023-04-04T02:49:33.388Z,53.86
2023-04-04T02:52:01.274Z,54.00
2023-04-04T02:54:33.211Z,54.51
2023-04-04T02:57:01.131Z,54.26
2023-04-04T02:59:28.533Z,54.68
2023-04-04T03:01:55.720Z,54.33
2023-04-04T03:04:23.158Z,54.64
2023-04-04T03:06:50.119Z,54.46
2023-04-04T03:09:17.454Z,54.91
2023-04-04T03:11:44.959Z,54.71
2023-04-04T03:14:12.261Z,54.84
2023-04-04T03:16:40.477Z,54.71
2023-04-04T03:19:07.731Z,54.55
2023-04-04T03:21:34.732Z,55.20
2023-04-04T03:24:01.761Z,55.13
2023-04-04T03:26:29.527Z,55.39
2023-04-04T03:28:56.924Z,55.27
2023-04-04T03:31:25.289Z,55.39
2023-04-04T03:33:52.968Z,55.43
2023-04-04T03:36:22.821Z,55.25
2023-04-04T03:38:50.832Z,55.61
2023-04-04T03:41:17.949Z,55.36
2023-04-04T03:43:45.747Z,55.74
2023-04-04T03:46:12.685Z,55.83
2023-04-04T03:48:40.230Z,55.40
2023-04-04T03:51:10.048Z,55.38
2023-04-04T03:53:38.504Z,55.37
2023-04-04T03:56:05.665Z,55.29
2023-04-04T03:58:35.555Z,55.29
2023-04-04T04:01:02.609Z,55.31
2023-04-04T04:03:32.044Z,55.62
2023-04-04T04:06:00.129Z,55.14
2023-04-04T04:08:27.925Z,55.02
2023-04-04T04:10:55.097Z,55.18
2023-04-04T04:13:22.299Z,54.67
2023-04-04T04:15:50.455Z,54.51
2023-04-04T04:18:21.575Z,54.11
2023-04-04T04:20:50.043Z,54.11
2023-04-04T04:23:18.240Z,54.08
2023-04-04T04:25:49.516Z,54.42
2023-04-04T04:28:19.336Z,54.38
2023-04-04T04:30:47.437Z,54.57
2023-04-04T04:33:19.499Z,54.25
2023-04-04T04:36:05.144Z,54.44
2023-04-04T04:38:42.267Z,54.41
2023-04-04T04:41:11.058Z,55.12
2023-04-04T04:43:45.273Z,54.86
2023-04-04T04:46:12.620Z,54.89
2023-04-04T04:48:39.881Z,54.99
2023-04-04T04:51:07.965Z,55.35
2023-04-04T04:53:42.794Z,55.02
2023-04-04T04:56:10.599Z,54.65
2023-04-04T04:58:41.216Z,54.92
2023-04-04T05:01:10.717Z,55.18
2023-04-04T05:03:39.716Z,55.07
2023-04-04T05:06:10.005Z,54.97
2023-04-04T05:08:38.214Z,54.97
2023-04-04T05:15:26.411Z,55.01
2023-04-04T05:17:53.868Z,54.76
2023-04-04T05:20:22.304Z,54.70
2023-04-04T05:22:51.642Z,54.57
2023-04-04T05:25:27.272Z,54.44
2023-04-04T05:27:55.869Z,54.35
2023-04-04T05:30:23.584Z,54.29
2023-04-04T05:33:20.163Z,54.21
2023-04-04T05:35:59.954Z,54.13
2023-04-04T05:38:28.609Z,54.41
2023-04-04T05:40:55.555Z,54.22
2023-04-04T05:43:23.990Z,53.71
2023-04-04T05:46:00.144Z,53.02
2023-04-04T05:48:28.980Z,52.42
2023-04-04T05:50:59.045Z,51.75
2023-04-04T05:53:49.014Z,50.71
2023-04-04T05:56:22.324Z,49.92
2023-04-04T05:58:49.406Z,49.05
2023-04-04T06:01:18.547Z,47.71
2023-04-04T06:03:46.891Z,46.78
2023-04-04T06:06:20.469Z,45.65
2023-04-04T06:08:53.606Z,44.55
2023-04-04T06:11:24.285Z,43.79
2023-04-04T06:13:55.294Z,42.61
2023-04-04T06:16:24.020Z,41.68
2023-04-04T06:18:51.088Z,41.69
2023-04-04T06:21:17.992Z,40.06
2023-04-04T06:23:44.852Z,39.56
2023-04-04T06:26:12.669Z,38.99
2023-04-04T06:28:49.713Z,37.94
2023-04-04T06:31:24.206Z,36.94
2023-04-04T06:33:53.881Z,36.42
2023-04-04T06:36:23.358Z,34.87
2023-04-04T06:38:51.671Z,34.53
2023-04-04T06:41:21.282Z,34.45
2023-04-04T06:43:50.124Z,33.04
2023-04-04T06:46:18.298Z,31.85
2023-04-04T06:48:45.294Z,32.28
2023-04-04T06:51:12.996Z,31.30
2023-04-04T06:53:44.503Z,30.34
2023-04-04T06:56:12.161Z,30.11
2023-04-04T06:58:39.690Z,29.68
2023-04-04T07:01:07.576Z,28.64
2023-04-04T07:03:34.598Z,27.85
2023-04-04T07:06:04.777Z,27.36
2023-04-04T07:08:36.151Z,27.83
2023-04-04T07:11:04.495Z,26.97
2023-04-04T07:13:31.315Z,26.86
2023-04-04T07:15:58.395Z,26.50
2023-04-04T07:18:25.257Z,26.54
2023-04-04T07:20:52.314Z,25.22
2023-04-04T07:23:19.180Z,25.57
2023-04-04T07:25:47.362Z,24.44
2023-04-04T07:28:14.260Z,24.02
2023-04-04T07:30:41.542Z,23.70
2023-04-04T07:33:08.729Z,23.73
2023-04-04T07:35:35.735Z,23.42
2023-04-04T07:38:03.298Z,22.29
2023-04-04T07:40:30.604Z,22.17
2023-04-04T07:42:57.741Z,21.33
2023-04-04T07:45:24.623Z,22.38
2023-04-04T07:47:51.682Z,19.95
2023-04-04T07:50:18.693Z,21.32
2023-04-04T07:52:52.459Z,20.31
2023-04-04T07:55:20.328Z,20.61
2023-04-04T07:57:47.736Z,20.40
2023-04-04T08:00:15.174Z,19.93
2023-04-04T08:02:44.320Z,19.68
2023-04-04T08:05:11.305Z,19.50
2023-04-04T08:07:38.244Z,20.27
2023-04-04T08:10:06.396Z,19.56
2023-04-04T08:12:33.310Z,20.26
2023-04-04T08:15:00.593Z,21.05
2023-04-04T08:17:28.717Z,22.21
2023-04-04T08:19:55.728Z,22.56
2023-04-04T08:22:22.740Z,21.93
2023-04-04T08:24:49.604Z,23.37
2023-04-04T08:27:17.062Z,24.27
2023-04-04T08:29:45.667Z,23.48
2023-04-04T08:32:13.412Z,23.12
2023-04-04T08:34:40.758Z,25.33
2023-04-04T08:37:08.943Z,26.03
2023-04-04T08:39:36.269Z,26.82
2023-04-04T08:42:05.706Z,28.70
2023-04-04T08:44:37.407Z,28.85
2023-04-04T08:47:05.784Z,27.45
2023-04-04T08:49:38.210Z,27.14
2023-04-04T08:52:07.585Z,27.46
2023-04-04T08:54:35.807Z,26.34
2023-04-04T08:57:04.310Z,27.88
2023-04-04T08:59:32.044Z,27.25
2023-04-04T09:02:24.703Z,27.25
2023-04-04T09:05:05.648Z,28.64
2023-04-04T09:07:34.978Z,30.73
2023-04-04T09:10:04.250Z,33.42
2023-04-04T09:12:33.302Z,33.97
2023-04-04T09:15:01.129Z,35.83
2023-04-04T09:17:28.592Z,35.84
2023-04-04T09:19:55.722Z,36.20
2023-04-04T09:22:22.821Z,38.18
2023-04-04T09:24:51.840Z,39.62
2023-04-04T09:27:19.169Z,40.03
2023-04-04T09:29:48.015Z,40.77
2023-04-04T09:32:16.348Z,40.84
2023-04-04T09:34:45.286Z,43.85
2023-04-04T09:37:16.230Z,42.09
2023-04-04T09:39:44.259Z,40.83
2023-04-04T09:42:12.373Z,40.77
2023-04-04T09:44:39.689Z,39.83
2023-04-04T09:47:30.471Z,38.86
2023-04-04T09:50:01.587Z,38.14
2023-04-04T09:52:33.997Z,37.24
2023-04-04T09:55:04.151Z,36.18
2023-04-04T09:57:33.629Z,36.53
2023-04-04T10:00:01.661Z,37.63
2023-04-04T10:02:31.211Z,37.56
2023-04-04T10:05:06.163Z,36.64
2023-04-04T10:07:33.980Z,35.08
2023-04-04T10:10:09.274Z,34.10
2023-04-04T10:12:39.127Z,33.67
2023-04-04T10:15:06.718Z,33.72
2023-04-04T10:17:41.422Z,33.68
2023-04-04T10:20:09.631Z,33.85
2023-04-04T10:22:38.085Z,34.82
2023-04-04T10:25:07.678Z,35.06
2023-04-04T10:27:34.807Z,35.38
2023-04-04T10:30:02.312Z,35.17
2023-04-04T10:32:38.332Z,35.72
2023-04-04T10:35:11.206Z,38.15
2023-04-04T10:37:43.938Z,39.50
2023-04-04T10:40:15.702Z,39.36
2023-04-04T10:42:47.204Z,38.17
2023-04-04T10:45:21.183Z,38.09
2023-04-04T10:47:49.408Z,39.80
2023-04-04T10:50:16.405Z,42.45
2023-04-04T10:52:44.862Z,40.31
2023-04-04T10:55:13.579Z,41.00
2023-04-04T10:57:47.408Z,42.75
2023-04-04T11:00:18.057Z,44.16
2023-04-04T11:02:59.954Z,44.92
2023-04-04T11:05:41.350Z,43.53
2023-04-04T11:08:10.952Z,45.02
2023-04-04T11:10:41.495Z,44.03
2023-04-04T11:13:16.430Z,45.17
2023-04-04T11:15:52.973Z,45.48
2023-04-04T11:18:32.711Z,44.65
2023-04-04T11:21:05.695Z,43.56
2023-04-04T11:23:47.684Z,43.22
2023-04-04T11:26:20.107Z,43.54
2023-04-04T11:28:47.257Z,43.97
2023-04-04T11:31:17.651Z,44.02
2023-04-04T11:34:04.528Z,44.13
2023-04-04T11:36:37.413Z,44.13
2023-04-04T11:39:11.793Z,43.92
2023-04-04T11:41:49.839Z,43.98
2023-04-04T11:44:17.684Z,43.39
2023-04-04T11:46:45.498Z,42.92
2023-04-04T11:49:12.480Z,44.43
2023-04-04T11:51:40.961Z,47.60
2023-04-04T11:54:17.896Z,47.78
2023-04-04T11:56:45.512Z,46.68
2023-04-04T11:59:13.330Z,45.74
2023-04-04T12:01:41.436Z,45.86
2023-04-04T12:04:09.607Z,46.90
2023-04-04T12:06:37.829Z,46.24
2023-04-04T12:09:06.340Z,46.74
2023-04-04T12:11:37.399Z,47.72
2023-04-04T12:14:04.319Z,47.14
2023-04-04T12:16:31.405Z,48.42
2023-04-04T12:19:02.146Z,47.69
2023-04-04T12:21:32.735Z,47.31
2023-04-04T12:23:59.816Z,47.13
2023-04-04T12:26:29.986Z,48.49
2023-04-04T12:28:58.297Z,48.60
2023-04-04T12:31:29.632Z,49.65
2023-04-04T12:33:56.685Z,49.38
2023-04-04T12:36:29.912Z,50.21
2023-04-04T12:39:08.551Z,50.08
2023-04-04T12:41:36.903Z,49.28
2023-04-04T12:44:09.895Z,49.81
2023-04-04T12:46:42.352Z,49.00
2023-04-04T12:49:14.092Z,48.81
2023-04-04T12:51:41.397Z,48.04
2023-04-04T12:54:08.471Z,48.18
2023-04-04T12:56:37.238Z,48.24
2023-04-04T12:59:08.410Z,47.61
2023-04-04T13:01:37.970Z,48.39
2023-04-04T13:04:04.884Z,47.50
2023-04-04T13:06:32.782Z,47.04
2023-04-04T13:08:59.878Z,46.94
2023-04-04T13:11:27.757Z,46.69
2023-04-04T13:14:03.127Z,48.61
2023-04-04T13:16:37.154Z,48.24
2023-04-04T13:19:04.955Z,46.61
2023-04-04T13:21:31.889Z,47.56
2023-04-04T13:23:58.927Z,46.99
2023-04-04T13:26:26.452Z,47.34
2023-04-04T13:28:53.284Z,47.72
2023-04-04T13:31:20.308Z,49.42
2023-04-04T13:33:47.629Z,51.48
2023-04-04T13:36:14.543Z,53.20
2023-04-04T13:38:41.628Z,51.75
2023-04-04T13:41:08.650Z,51.12
2023-04-04T13:43:35.841Z,51.25
2023-04-04T13:46:02.784Z,50.58
2023-04-04T13:48:30.013Z,51.38
2023-04-04T13:50:57.540Z,51.50
2023-04-04T13:53:24.488Z,51.22
2023-04-04T13:56:16.370Z,51.68
2023-04-04T13:58:38.545Z,52.70
2023-04-04T14:01:06.906Z,52.23
2023-04-04T14:03:34.014Z,52.22
2023-04-04T14:06:09.190Z,52.55
2023-04-04T14:08:36.557Z,51.43
2023-04-04T14:11:03.514Z,50.61
2023-04-04T14:13:30.415Z,50.38
2023-04-04T14:15:57.279Z,51.34
2023-04-04T14:18:24.184Z,51.87
2023-04-04T14:20:51.246Z,51.48
2023-04-04T14:23:18.155Z,50.72
2023-04-04T14:25:45.312Z,51.37
2023-04-04T14:28:12.379Z,50.99
2023-04-04T14:30:39.280Z,51.29
2023-04-04T14:33:06.225Z,51.25
2023-04-04T14:35:33.167Z,50.45
2023-04-04T14:38:00.116Z,50.52
2023-04-04T14:40:29.142Z,50.74
2023-04-04T14:42:56.256Z,50.80
2023-04-04T14:45:23.823Z,50.58
2023-04-04T14:47:51.091Z,50.43
2023-04-04T14:50:18.062Z,50.11
2023-04-04T14:52:45.325Z,51.82
2023-04-04T14:55:12.411Z,52.61
2023-04-04T14:57:57.068Z,52.22
2023-04-04T15:00:26.655Z,52.62
2023-04-04T15:02:53.677Z,53.57
2023-04-04T15:05:20.716Z,53.03
2023-04-04T15:07:47.803Z,52.65
2023-04-04T15:10:14.899Z,51.81
2023-04-04T15:12:42.003Z,51.54
2023-04-04T15:15:09.401Z,52.27
2023-04-04T15:17:36.739Z,52.59
2023-04-04T15:20:03.894Z,51.02
2023-04-04T15:22:30.895Z,51.49
2023-04-04T15:24:57.872Z,51.92
2023-04-04T15:27:24.706Z,51.53
2023-04-04T15:29:52.816Z,52.35
2023-04-04T15:32:19.756Z,51.20
2023-04-04T15:34:46.645Z,51.02
2023-04-04T15:37:13.565Z,50.22
2023-04-04T15:39:52.360Z,50.27
2023-04-04T15:42:20.811Z,51.57
2023-04-04T15:44:47.754Z,51.45
2023-04-04T15:47:16.668Z,51.12
2023-04-04T15:49:43.667Z,51.34
2023-04-04T15:52:10.871Z,51.32
2023-04-04T15:54:37.709Z,50.89
2023-04-04T15:57:04.644Z,50.93
2023-04-04T15:59:32.338Z,51.44
2023-04-04T16:01:59.969Z,50.67
2023-04-04T16:04:26.846Z,51.03
2023-04-04T16:06:53.746Z,51.87
2023-04-04T16:09:21.534Z,52.55
2023-04-04T16:11:48.589Z,52.55
2023-04-04T16:14:15.542Z,52.14
2023-04-04T16:16:42.497Z,51.64
2023-04-04T16:19:09.427Z,51.02
2023-04-04T16:21:36.966Z,51.75
2023-04-04T16:24:05.301Z,51.62
2023-04-04T16:26:32.285Z,50.55
2023-04-04T16:28:59.325Z,50.51
2023-04-04T16:31:26.428Z,50.67
2023-04-04T16:33:53.367Z,50.94
2023-04-04T16:36:20.559Z,50.33
2023-04-04T16:38:47.567Z,50.63
2023-04-04T16:41:16.355Z,49.95
2023-04-04T16:43:43.605Z,49.93
2023-04-04T16:46:10.838Z,50.63
2023-04-04T16:48:37.770Z,50.45
2023-04-04T16:51:04.881Z,50.85
2023-04-04T16:53:31.833Z,50.80
2023-04-04T16:55:58.702Z,50.61
2023-04-04T16:58:26.148Z,51.24
2023-04-04T17:00:53.064Z,50.21
2023-04-04T17:03:19.959Z,50.07
2023-04-04T17:05:47.969Z,49.61
2023-04-04T17:08:14.977Z,49.85
2023-04-04T17:10:43.152Z,49.68
2023-04-04T17:13:10.517Z,49.39
2023-04-04T17:15:37.455Z,49.69
2023-04-04T17:18:04.424Z,49.88
2023-04-04T17:20:34.230Z,49.67
2023-04-04T17:23:01.440Z,49.43
2023-04-04T17:25:29.345Z,50.04
2023-04-04T17:27:56.509Z,50.44
2023-04-04T17:30:23.587Z,50.65
2023-04-04T17:32:54.447Z,51.23
2023-04-04T17:35:21.834Z,51.43
2023-04-04T17:37:48.728Z,51.60
2023-04-04T17:40:15.719Z,51.90
2023-04-04T17:42:42.624Z,51.87
2023-04-04T17:45:10.365Z,51.67
2023-04-04T17:47:37.847Z,52.01
2023-04-04T17:50:05.734Z,52.05
2023-04-04T17:52:33.400Z,51.68
2023-04-04T17:55:00.684Z,52.05
2023-04-04T17:57:27.667Z,52.22
2023-04-04T17:59:54.786Z,52.44
2023-04-04T18:02:21.940Z,52.31
2023-04-04T18:04:48.835Z,52.89
2023-04-04T18:07:16.983Z,52.28
2023-04-04T18:09:44.655Z,52.63
2023-04-04T18:12:12.334Z,51.93
2023-04-04T18:14:39.284Z,52.10
2023-04-04T18:17:06.432Z,51.88
2023-04-04T18:19:33.508Z,52.37
2023-04-04T18:22:01.662Z,52.41
2023-04-04T18:24:28.645Z,52.08
2023-04-04T18:26:56.391Z,51.89
2023-04-04T18:29:23.407Z,51.73
2023-04-04T18:31:51.291Z,51.35
2023-04-04T18:34:18.491Z,51.72
2023-04-04T18:36:46.798Z,51.48
2023-04-04T18:39:17.392Z,51.56
2023-04-04T18:41:46.581Z,51.60
2023-04-04T18:44:13.841Z,51.31
2023-04-04T18:46:41.028Z,50.87
2023-04-04T18:49:08.180Z,50.18
2023-04-04T18:51:35.185Z,49.48
2023-04-04T18:54:02.206Z,50.68
2023-04-04T18:56:29.100Z,50.76
2023-04-04T18:58:56.579Z,50.75
2023-04-04T19:01:24.687Z,50.79
2023-04-04T19:03:53.886Z,50.76
2023-04-04T19:06:26.099Z,50.76
2023-04-04T19:08:56.846Z,50.62
2023-04-04T19:11:24.115Z,50.26
2023-04-04T19:13:51.373Z,50.35
2023-04-04T19:16:19.470Z,50.41
2023-04-04T19:18:46.509Z,50.50
2023-04-04T19:21:13.511Z,50.74
2023-04-04T19:23:40.975Z,50.88
2023-04-04T19:26:08.192Z,50.72
2023-04-04T19:28:35.804Z,50.73
2023-04-04T19:31:04.591Z,50.55
2023-04-04T19:33:33.232Z,50.36
2023-04-04T19:36:09.596Z,49.63
2023-04-04T19:38:42.630Z,49.73
2023-04-04T19:41:36.612Z,50.03
2023-04-04T19:44:06.498Z,49.52
2023-04-04T19:46:34.445Z,48.94
2023-04-04T19:49:24.626Z,48.76
2023-04-04T19:51:54.190Z,48.23
2023-04-04T19:54:28.704Z,48.28
2023-04-04T19:57:05.118Z,49.70
2023-04-04T20:00:10.978Z,49.56
2023-04-04T20:02:47.703Z,49.69
2023-04-04T20:05:47.115Z,49.69
2023-04-04T20:08:14.874Z,50.45
2023-04-04T20:10:42.571Z,50.87
2023-04-04T20:13:09.927Z,50.33
2023-04-04T20:16:00.626Z,51.10
2023-04-04T20:18:30.006Z,51.39
2023-04-04T20:20:58.369Z,51.39
2023-04-04T20:23:27.079Z,51.31
2023-04-04T20:25:54.716Z,51.11
2023-04-04T20:28:27.592Z,51.24
2023-04-04T20:30:54.968Z,51.23
2023-04-04T20:33:32.291Z,51.47
2023-04-04T20:36:06.218Z,51.41
2023-04-04T20:38:33.365Z,51.11
2023-04-04T20:41:00.836Z,51.29
2023-04-04T20:43:28.946Z,51.48
2023-04-04T20:45:56.127Z,51.49
2023-04-04T20:48:50.791Z,51.45
2023-04-04T20:51:31.497Z,51.24
2023-04-04T20:54:01.089Z,50.93
2023-04-04T20:56:52.638Z,50.63
2023-04-04T20:59:35.002Z,50.35
2023-04-04T21:02:11.464Z,50.54
2023-04-04T21:04:39.889Z,50.11
2023-04-04T21:07:06.905Z,50.33
2023-04-04T21:09:33.913Z,50.30
2023-04-04T21:12:01.890Z,50.68
2023-04-04T21:14:38.108Z,50.26
2023-04-04T21:17:07.110Z,49.65
2023-04-04T21:19:34.162Z,49.97
2023-04-04T21:22:01.224Z,49.87
2023-04-04T21:24:34.351Z,50.06
2023-04-04T21:27:04.625Z,49.67
2023-04-04T21:29:31.618Z,49.69
2023-04-04T21:31:59.107Z,49.84
2023-04-04T21:34:27.921Z,49.78
2023-04-04T21:36:59.889Z,49.98
2023-04-04T21:39:29.804Z,49.79
2023-04-04T21:42:04.051Z,49.71
2023-04-04T21:44:32.295Z,49.78
2023-04-04T21:46:59.171Z,49.82
2023-04-04T21:49:26.673Z,50.00
2023-04-04T21:51:53.645Z,49.58
2023-04-04T21:54:20.649Z,49.85
2023-04-04T21:56:47.756Z,49.77
2023-04-04T21:59:14.882Z,49.69
2023-04-04T22:01:41.975Z,49.58
2023-04-04T22:04:09.029Z,49.26
2023-04-04T22:06:36.505Z,49.57
2023-04-04T22:09:04.350Z,49.54
2023-04-04T22:11:34.838Z,49.38
2023-04-04T22:14:07.210Z,49.29
2023-04-04T22:16:40.347Z,49.41
2023-04-04T22:19:07.819Z,49.41
2023-04-04T22:21:37.159Z,49.53
2023-04-04T22:24:06.217Z,49.44
2023-04-04T22:26:33.745Z,49.81
2023-04-04T22:29:05.409Z,49.47
2023-04-04T22:31:37.643Z,49.34
2023-04-04T22:34:06.446Z,49.54
2023-04-04T22:36:34.593Z,49.64
2023-04-04T22:39:02.125Z,49.52
2023-04-04T22:41:30.218Z,49.69
2023-04-04T22:43:58.041Z,49.41
2023-04-04T22:46:26.667Z,49.74
2023-04-04T22:49:06.126Z,49.43
2023-04-04T22:51:43.342Z,49.83
2023-04-04T22:54:15.230Z,49.61
2023-04-04T22:56:42.367Z,49.45
2023-04-04T22:59:09.336Z,49.42
2023-04-04T23:01:36.650Z,49.12
2023-04-04T23:04:03.838Z,49.75
2023-04-04T23:06:31.451Z,49.38
2023-04-04T23:08:59.060Z,49.52
2023-04-04T23:11:27.543Z,49.61
2023-04-04T23:13:57.149Z,49.84
2023-04-04T23:16:26.653Z,49.68
2023-04-04T23:18:53.665Z,49.99
2023-04-04T23:21:22.053Z,50.44
2023-04-04T23:23:49.198Z,50.53
2023-04-04T23:26:16.387Z,50.25
2023-04-04T23:28:43.424Z,50.46
2023-04-04T23:31:10.741Z,50.42
2023-04-04T23:33:38.120Z,50.27
2023-04-04T23:36:07.314Z,50.32
2023-04-04T23:38:34.332Z,50.36
2023-04-04T23:41:01.364Z,50.45
2023-04-04T23:43:28.544Z,50.37
2023-04-04T23:45:55.696Z,50.44
2023-04-04T23:48:22.634Z,50.63
2023-04-04T23:50:50.259Z,51.23
2023-04-04T23:53:17.279Z,51.25
2023-04-04T23:55:44.219Z,51.37
2023-04-04T23:58:11.252Z,51.18
